Country
Station

 

Weather  for  Lufkin, Angelina County Airport  -  United States    United States

  
4 °C (39 °F)
    
 
 

Current METAR for Lufkin, Angelina County Airport is :

KLFK 191353Z AUTO 06009KT 3SM -RA BR OVC008 04/04 A3009 RMK AO2 LTG DSNT ALQDS RAE21B36 SLP189 P0006 T00390039

 

This is a report for Lufkin, Angelina County Airport - United States.
 
The report was made 19 minutes ago, at 13:53 UTC .
The wind was blowing at a speed of 4.6 meters per second (10.4 miles per hour) from east/northeast (060°).
 
The temperature was 4 °C (39 °F), with a dew-point at 4 °C (39 °F).
The temperature felt like -0 °C (32 °F).
 
The atmospheric pressure was 1019 hPa (30.09 inHg).
The relative humidity was 100.0%.
 
The sky was overcast from a height of 244 meter (800 feet)
 
The overall visibility was 4828 meter (15840 feet).
 
Currently light rain plus mist.

 
 
 
 

Country :   A   B   C   D   E   F   G   H   I   J   K   L   M   N   O   P   Q   R   S   T   U   V   W   Y   Z

 

Site Info  |  Disclaimer  |  Credits  |  Privacy
Contact us  |  Add to favorites
© 2013-2019 METARs - All rights reserved